Home > Products > Valid Products > TAF

000
FTUS42 KKEY 022300
TAFEYW
TAF
KEYW 022337Z 0300/0324 VRB05KT P6SM FEW025 BKN150
     FM030600 09007KT P6SM SCT025 BKN150=



000
FTUS42 KKEY 022300
TAFEYW
TAF
KEYW 022337Z 0300/0324 VRB05KT P6SM FEW025 BKN150
     FM030600 09007KT P6SM SCT025 BKN150=



000
FTUS42 KKEY 021700
TAFEYW
TAF
KEYW 021740Z 0218/0318 13009KT P6SM VCSH SCT029 BKN100
     FM022100 10009KT P6SM SCT029 SCT100
     FM030600 11008KT P6SM VCSH SCT029 BKN100
     FM031500 11008KT P6SM SCT029 SCT100=



000
FTUS42 KKEY 021700
TAFEYW
TAF
KEYW 021740Z 0218/0318 13009KT P6SM VCSH SCT029 BKN100
     FM022100 10009KT P6SM SCT029 SCT100
     FM030600 11008KT P6SM VCSH SCT029 BKN100
     FM031500 11008KT P6SM SCT029 SCT100=



000
FTUS42 KKEY 021700 AAD
TAFEYW
TAF AMD
KEYW 021722Z 0217/0312 11009KT P6SM VCSH SCT029 SCT080
      TEMPO 0217/0218 14015G25KT 3SM SHRA BKN029 BKN080
     FM030600 09007KT P6SM VCSH SCT029 BKN080=



000
FTUS42 KKEY 021700 AAD
TAFEYW
TAF AMD
KEYW 021722Z 0217/0312 11009KT P6SM VCSH SCT029 SCT080
      TEMPO 0217/0218 14015G25KT 3SM SHRA BKN029 BKN080
     FM030600 09007KT P6SM VCSH SCT029 BKN080=



000
FTUS42 KKEY 021500 AAC
TAFEYW
TAF AMD
KEYW 021513Z 0215/0312 11009KT P6SM SCT029 SCT080
     FM030600 09007KT P6SM VCSH SCT029 BKN080=



000
FTUS42 KKEY 021500 AAC
TAFEYW
TAF AMD
KEYW 021513Z 0215/0312 11009KT P6SM SCT029 SCT080
     FM030600 09007KT P6SM VCSH SCT029 BKN080=



000
FTUS42 KKEY 021400 AAB
TAFEYW
TAF AMD
KEYW 021404Z 0214/0312 09010KT P6SM VCSH SCT027 BKN060
     FM021800 10008KT P6SM SCT027 SCT060
     FM030600 09007KT P6SM VCSH SCT027 BKN060=



000
FTUS42 KKEY 021400 AAB
TAFEYW
TAF AMD
KEYW 021404Z 0214/0312 09010KT P6SM VCSH SCT027 BKN060
     FM021800 10008KT P6SM SCT027 SCT060
     FM030600 09007KT P6SM VCSH SCT027 BKN060=



000
FTUS42 KKEY 021200 AAA
TAFEYW
TAF AMD
KEYW 021202Z 0212/0312 11011G17KT P6SM VCSH SCT026 BKN060
     FM021800 10008KT P6SM SCT026 SCT060
     FM030600 09007KT P6SM VCSH SCT026 BKN060=



000
FTUS42 KKEY 021100
TAFEYW
TAF
KEYW 021134Z 0212/0312 11007KT P6SM VCSH SCT026 BKN080
     FM021800 10008KT P6SM SCT026 SCT080
     FM030600 09007KT P6SM VCSH SCT026 BKN080=



000
FTUS42 KKEY 021100
TAFEYW
TAF
KEYW 021134Z 0212/0312 11007KT P6SM VCSH SCT026 BKN080
     FM021800 10008KT P6SM SCT026 SCT080
     FM030600 09007KT P6SM VCSH SCT026 BKN080=



000
FTUS42 KKEY 020900 AAA
TAFEYW
TAF AMD
KEYW 020949Z 0210/0306 10008KT P6SM VCSH SCT025
     FM021300 10008KT P6SM FEW025=



000
FTUS42 KKEY 020900 AAA
TAFEYW
TAF AMD
KEYW 020949Z 0210/0306 10008KT P6SM VCSH SCT025
     FM021300 10008KT P6SM FEW025=



000
FTUS42 KKEY 020500
TAFEYW
TAF
KEYW 020529Z 0206/0306 10008KT P6SM VCSH SCT025
     FM021300 10008KT P6SM FEW025=



000
FTUS42 KKEY 020500
TAFEYW
TAF
KEYW 020529Z 0206/0306 10008KT P6SM VCSH SCT025
     FM021300 10008KT P6SM FEW025=



000
FTUS42 KKEY 020400 AAA
TAFEYW
TAF AMD
KEYW 020455Z 0205/0224 10008KT P6SM SCT025
      TEMPO 0205/0206 10012G18KT 3SM +SHRA BKN025=



000
FTUS42 KKEY 020400 AAA
TAFEYW
TAF AMD
KEYW 020455Z 0205/0224 10008KT P6SM SCT025
      TEMPO 0205/0206 10012G18KT 3SM +SHRA BKN025=



000
FTUS42 KKEY 012300
TAFEYW
TAF
KEYW 012337Z 0200/0224 10008KT P6SM SCT025=



000
FTUS42 KKEY 012300
TAFEYW
TAF
KEYW 012337Z 0200/0224 10008KT P6SM SCT025=



000
FTUS42 KKEY 011700
TAFEYW
TAF
KEYW 011732Z 0118/0218 11011G18KT P6SM SCT025
     FM020000 10008KT P6SM SCT025=



000
FTUS42 KKEY 011700
TAFEYW
TAF
KEYW 011732Z 0118/0218 11011G18KT P6SM SCT025
     FM020000 10008KT P6SM SCT025=



000
FTUS42 KKEY 011500 AAA
TAFEYW
TAF AMD
KEYW 011503Z 0115/0212 10011G18KT P6SM VCSH SCT025
     FM020200 09008KT P6SM SCT025=



000
FTUS42 KKEY 011500 AAA
TAFEYW
TAF AMD
KEYW 011503Z 0115/0212 10011G18KT P6SM VCSH SCT025
     FM020200 09008KT P6SM SCT025=



000
FTUS42 KKEY 011100
TAFEYW
TAF
KEYW 011139Z 0112/0212 10011G18KT P6SM SCT025
     FM020200 09008KT P6SM SCT025=



000
FTUS42 KKEY 011000 AAB
TAFEYW
TAF AMD
KEYW 011042Z 0111/0206 10012KT P6SM VCSH FEW022 SCT030 SCT050
     FM011200 12012G16KT P6SM FEW027 SCT040
     FM020200 09008KT P6SM FEW023=



000
FTUS42 KKEY 011000 AAB
TAFEYW
TAF AMD
KEYW 011042Z 0111/0206 10012KT P6SM VCSH FEW022 SCT030 SCT050
     FM011200 12012G16KT P6SM FEW027 SCT040
     FM020200 09008KT P6SM FEW023=



000
FTUS42 KKEY 010800 AAA
TAFEYW
TAF AMD
KEYW 010830Z 0109/0206 10011KT P6SM FEW027
     FM011200 11012G16KT P6SM SCT027=



000
FTUS42 KKEY 010800 AAA
TAFEYW
TAF AMD
KEYW 010830Z 0109/0206 10011KT P6SM FEW027
     FM011200 11012G16KT P6SM SCT027=



000
FTUS42 KKEY 010500
TAFEYW
TAF
KEYW 010526Z 0106/0206 10009KT P6SM FEW027
     FM011200 11012G16KT P6SM SCT027=



000
FTUS42 KKEY 010500
TAFEYW
TAF
KEYW 010526Z 0106/0206 10009KT P6SM FEW027
     FM011200 11012G16KT P6SM SCT027=



000
FTUS42 KKEY 010300 AAA
TAFEYW
TAF AMD
KEYW 010357Z 0104/0124 10009KT P6SM SCT025=



000
FTUS42 KKEY 010300 AAA
TAFEYW
TAF AMD
KEYW 010357Z 0104/0124 10009KT P6SM SCT025=



000
FTUS42 KKEY 312300
TAFEYW
TAF
KEYW 312337Z 0100/0124 10011G17KT P6SM SCT025=



000
FTUS42 KKEY 312300
TAFEYW
TAF
KEYW 312337Z 0100/0124 10011G17KT P6SM SCT025=



000
FTUS42 KKEY 311700 AAA
TAFEYW
TAF AMD
KEYW 311750Z 3118/0118 11014G21KT P6SM VCSH SCT025
     FM312300 10010G18KT P6SM VCSH SCT025=



000
FTUS42 KKEY 311700 AAA
TAFEYW
TAF AMD
KEYW 311750Z 3118/0118 11014G21KT P6SM VCSH SCT025
     FM312300 10010G18KT P6SM VCSH SCT025=



000
FTUS42 KKEY 311700
TAFEYW
TAF
KEYW 311739Z 3118/0118 11014G21KT P6SM SCT025
     FM312300 10010G18KT P6SM VCSH SCT025=



000
FTUS42 KKEY 311700
TAFEYW
TAF
KEYW 311739Z 3118/0118 11014G21KT P6SM SCT025
     FM312300 10010G18KT P6SM VCSH SCT025=



000
FTUS42 KKEY 311400 AAB
TAFEYW
TAF AMD
KEYW 311456Z 3115/0112 11012G20KT P6SM SCT025=



000
FTUS42 KKEY 311400 AAB
TAFEYW
TAF AMD
KEYW 311456Z 3115/0112 11012G20KT P6SM SCT025=



000
FTUS42 KKEY 311200 AAA
TAFEYW
TAF AMD
KEYW 311210Z 3112/0112 11010KT P6SM VCSH SCT025
      TEMPO 3112/3113 11015G25KT 1SM +RA BKN025
     FM311300 12012G20KT P6SM SCT025=



000
FTUS42 KKEY 311200 AAA
TAFEYW
TAF AMD
KEYW 311210Z 3112/0112 11010KT P6SM VCSH SCT025
      TEMPO 3112/3113 11015G25KT 1SM +RA BKN025
     FM311300 12012G20KT P6SM SCT025=



000
FTUS42 KKEY 311100
TAFEYW
TAF
KEYW 311139Z 3112/0112 11011G17KT P6SM VCSH SCT025
     FM311400 12012G20KT P6SM SCT025=



000
FTUS42 KKEY 311100
TAFEYW
TAF
KEYW 311139Z 3112/0112 11011G17KT P6SM VCSH SCT025
     FM311400 12012G20KT P6SM SCT025=



000
FTUS42 KKEY 310800 AAA
TAFEYW
TAF AMD
KEYW 310841Z 3109/0106 11011G17KT P6SM VCSH SCT029 SCT040 SCT050
     FM310900 12013G17KT P6SM SCT029=



000
FTUS42 KKEY 310800 AAA
TAFEYW
TAF AMD
KEYW 310841Z 3109/0106 11011G17KT P6SM VCSH SCT029 SCT040 SCT050
     FM310900 12013G17KT P6SM SCT029=



000
FTUS42 KKEY 310500
TAFEYW
TAF
KEYW 310523Z 3106/0106 11014G21KT P6SM VCSH SCT029 SCT040 SCT050
     FM311200 12013G17KT P6SM SCT029=



000
FTUS42 KKEY 310500
TAFEYW
TAF
KEYW 310523Z 3106/0106 11014G21KT P6SM VCSH SCT029 SCT040 SCT050
     FM311200 12013G17KT P6SM SCT029=



    US Dept of Commerce
    National Oceanic and Atmospheric Administration
    National Weather Service
    1325 East West Highway
    Silver Spring, MD 20910
    Page Author: NWS Internet Services Team
Disclaimer
Information Quality
Credits
Glossary
Privacy Policy
Freedom of Information Act (FOIA)
About Us
Career Opportunities